EST,Max TemperatureF,Mean TemperatureF,Min TemperatureF,Max Dew PointF,MeanDew PointF,Min DewpointF,Max Humidity, Mean Humidity, Min Humidity, Max Sea Level PressureIn, Mean Sea Level PressureIn, Min Sea Level PressureIn, Max VisibilityMiles, Mean VisibilityMiles, Min VisibilityMiles, Max Wind SpeedMPH, Mean Wind SpeedMPH, Max Gust SpeedMPH,PrecipitationIn, CloudCover, Events, WindDirDegrees
2012-11-1,60,46,44,38,37,36,76,72,68,29.65,29.63,29.59,10,10,10,8,6,,0.00,6,,250
2012-11-2,48,44,39,37,34,30,82,71,58,29.83,29.71,29.65,10,10,10,17,7,29,0.01,7,Rain,281
2012-11-3,46,42,39,31,29,27,73,59,50,30.01,29.91,29.83,10,10,10,16,10,29,0.00,8,,311
2012-11-4,45,38,33,30,28,26,75,63,55,30.03,30.01,29.99,10,10,10,12,8,18,0.00,5,,317
2012-11-5,44,38,30,27,24,20,65,58,47,30.20,30.08,30.01,10,10,10,13,7,23,0.00,7,,346
2012-11-6,42,34,25,23,20,18,78,60,43,30.25,30.17,30.07,10,10,10,7,3,,0.00,2,,36
2012-11-7,37,34,32,32,28,20,100,81,54,30.04,29.90,29.81,10,6,2,15,10,29,0.21,7,Snow,359
2012-11-8,48,42,35,26,21,17,67,48,29,29.99,29.87,29.80,10,10,10,18,11,29,0.10,3,,327
2012-11-9,53,42,32,31,27,22,82,58,37,30.23,30.12,30.00,10,10,10,16,8,24,0.00,0,,318
2012-11-10,55,44,32,38,34,29,92,73,49,30.41,30.33,30.24,10,10,10,5,0,,0.00,3,Rain,245
2012-11-11,66,52,37,47,41,37,100,85,40,30.49,30.44,30.40,10,7,0,7,1,,0.00,2,Fog,153
2012-11-12,66,52,39,57,48,39,100,89,59,30.45,30.35,30.15,10,7,0,9,2,21,0.00,3,Fog,161
2012-11-13,62,48,34,58,39,25,100,84,59,30.47,30.31,30.12,10,10,7,17,9,26,0.22,7,Rain,321
2012-11-14,48,39,30,25,23,21,73,59,39,30.54,30.49,30.46,10,10,10,12,5,20,0.00,0,,16
2012-11-15,46,38,30,29,25,20,76,64,44,30.45,30.39,30.31,10,10,10,7,3,,0.00,0,,40
2012-11-16,48,40,32,28,26,22,75,62,39,30.45,30.36,30.31,10,10,10,7,2,,0.00,0,,11
2012-11-17,53,42,32,30,27,21,85,62,40,30.64,30.57,30.46,10,10,10,10,4,16,0.00,0,,33
2012-11-18,50,41,32,34,31,27,85,72,50,30.66,30.61,30.54,10,10,10,8,2,,0.00,1,,38
2012-11-19,52,42,33,37,34,30,92,74,54,30.54,30.41,30.25,10,10,10,10,5,,0.00,4,,33
2012-11-20,46,39,32,34,32,30,92,77,56,30.22,30.17,30.13,10,10,10,4,1,,0.00,0,,45
2012-11-21,41,35,33,31,29,27,82,76,65,30.22,30.18,30.15,10,10,10,5,1,,0.00,0,,38
2012-11-22,,,,,,,,,,,,,,,,,,,,,,
2012-11-23,57,51,45,41,38,34,82,62,45,30.01,29.81,29.71,10,10,10,15,6,22,0.00,4,,204
2012-11-24,41,38,34,23,21,19,59,52,43,29.91,29.83,29.76,10,10,10,17,14,29,0.00,5,,292
2012-11-25,37,32,28,21,20,17,72,58,50,30.00,29.95,29.91,10,10,10,15,7,23,0.00,3,,254
2012-11-26,46,36,27,24,22,19,72,57,37,30.26,30.14,30.00,10,10,10,14,3,18,0.00,1,,266
2012-11-27,35,32,30,32,30,23,100,93,61,30.29,30.24,30.19,10,5,1,6,3,,0.27,8,Snow,27
2012-11-28,37,32,28,32,25,21,96,75,57,30.33,30.26,30.21,10,10,9,10,4,,0.34,3,,301
2012-11-29,41,34,26,25,22,19,78,66,51,30.41,30.35,30.32,10,10,10,10,5,17,0.00,0,,233
2012-11-30,44,34,24,37,27,22,93,74,47,30.42,30.38,30.34,10,10,9,6,1,,0.00,4,,36